createdAt,value
2023-04-11T00:02:07.090Z,8.71
2023-04-11T00:04:42.032Z,8.57
2023-04-11T00:07:16.099Z,8.58
2023-04-11T00:09:50.678Z,8.47
2023-04-11T00:12:22.637Z,8.53
2023-04-11T00:14:53.810Z,8.55
2023-04-11T00:17:24.260Z,8.47
2023-04-11T00:19:54.206Z,8.44
2023-04-11T00:22:27.690Z,8.63
2023-04-11T00:25:00.084Z,8.71
2023-04-11T00:27:30.620Z,8.60
2023-04-11T00:30:01.480Z,8.47
2023-04-11T00:32:40.667Z,8.31
2023-04-11T00:35:17.696Z,8.48
2023-04-11T00:37:51.372Z,8.59
2023-04-11T00:40:24.258Z,8.11
2023-04-11T00:42:55.572Z,8.14
2023-04-11T00:45:26.664Z,8.02
2023-04-11T00:47:58.513Z,7.96
2023-04-11T00:50:32.925Z,7.69
2023-04-11T00:53:07.176Z,7.56
2023-04-11T00:55:37.138Z,7.72
2023-04-11T00:58:12.505Z,7.62
2023-04-11T01:00:41.662Z,7.80
2023-04-11T01:03:15.994Z,7.73
2023-04-11T01:05:46.380Z,7.68
2023-04-11T01:08:17.581Z,7.56
2023-04-11T01:10:48.060Z,7.49
2023-04-11T01:13:20.247Z,7.64
2023-04-11T01:15:48.785Z,7.76
2023-04-11T01:18:20.750Z,7.78
2023-04-11T01:20:54.312Z,7.82
2023-04-11T01:23:38.924Z,7.81
2023-04-11T01:26:09.999Z,7.80
2023-04-11T01:28:39.751Z,7.91
2023-04-11T01:31:08.582Z,7.87
2023-04-11T01:33:43.227Z,7.87
2023-04-11T01:36:12.561Z,7.91
2023-04-11T01:38:47.460Z,7.78
2023-04-11T01:41:18.750Z,7.87
2023-04-11T01:43:47.055Z,7.99
2023-04-11T01:46:17.757Z,7.79
2023-04-11T01:48:49.793Z,7.78
2023-04-11T01:51:20.807Z,7.87
2023-04-11T01:53:57.570Z,7.83
2023-04-11T01:56:26.454Z,7.93
2023-04-11T01:58:59.549Z,7.91
2023-04-11T02:01:35.901Z,7.90
2023-04-11T02:04:05.918Z,7.93
2023-04-11T02:06:34.905Z,7.84
2023-04-11T02:09:20.613Z,7.99
2023-04-11T02:11:50.548Z,7.96
2023-04-11T02:14:30.110Z,7.81
2023-04-11T02:17:04.378Z,7.71
2023-04-11T02:19:34.670Z,7.70
2023-04-11T02:22:03.484Z,7.81
2023-04-11T02:24:40.124Z,7.87
2023-04-11T02:27:08.888Z,7.50
2023-04-11T02:29:38.372Z,7.51
2023-04-11T02:32:07.220Z,7.48
2023-04-11T02:34:39.055Z,7.64
2023-04-11T02:37:08.605Z,7.55
2023-04-11T02:39:43.994Z,7.76
2023-04-11T02:42:13.991Z,7.61
2023-04-11T02:44:46.080Z,7.71
2023-04-11T02:47:17.611Z,7.74
2023-04-11T02:50:00.446Z,7.58
2023-04-11T02:52:37.770Z,7.68
2023-04-11T02:55:12.300Z,7.69
2023-04-11T02:57:40.432Z,7.74
2023-04-11T03:00:22.677Z,7.72
2023-04-11T03:03:00.139Z,7.48
2023-04-11T03:05:34.065Z,7.88
2023-04-11T03:08:06.085Z,8.00
2023-04-11T03:10:38.606Z,7.75
2023-04-11T03:13:11.356Z,7.75
2023-04-11T03:15:42.620Z,7.55
2023-04-11T03:18:14.535Z,7.68
2023-04-11T03:20:45.739Z,7.47
2023-04-11T03:23:19.802Z,7.60
2023-04-11T03:25:51.003Z,7.60
2023-04-11T03:28:23.845Z,7.50
2023-04-11T03:30:53.070Z,7.49
2023-04-11T03:33:34.159Z,7.58
2023-04-11T03:36:06.004Z,7.58
2023-04-11T03:38:36.818Z,7.52
2023-04-11T03:41:09.385Z,7.66
2023-04-11T03:43:41.202Z,7.47
2023-04-11T03:46:11.931Z,7.51
2023-04-11T03:48:47.535Z,7.55
2023-04-11T03:51:21.252Z,7.54
2023-04-11T03:53:57.786Z,7.42
2023-04-11T03:56:41.787Z,7.57
2023-04-11T03:59:21.386Z,7.44
2023-04-11T04:02:14.977Z,7.58
2023-04-11T04:04:57.512Z,7.53
2023-04-11T04:07:33.033Z,7.53
2023-04-11T04:10:12.314Z,7.54
2023-04-11T04:12:44.958Z,7.45
2023-04-11T04:15:27.746Z,7.61
2023-04-11T04:17:57.003Z,7.59
2023-04-11T04:20:45.109Z,7.53
2023-04-11T04:23:20.384Z,7.47
2023-04-11T04:26:04.255Z,7.52
2023-04-11T04:28:38.515Z,7.45
2023-04-11T04:31:09.551Z,7.43
2023-04-11T04:33:44.153Z,7.42
2023-04-11T04:36:31.276Z,7.38
2023-04-11T04:39:02.193Z,7.43
2023-04-11T04:41:40.254Z,7.27
2023-04-11T04:44:10.594Z,7.31
2023-04-11T04:46:46.397Z,7.27
2023-04-11T04:49:15.688Z,7.32
2023-04-11T04:51:47.878Z,7.57
2023-04-11T04:54:32.229Z,7.46
2023-04-11T04:57:05.036Z,7.40
2023-04-11T04:59:47.621Z,7.42
2023-04-11T05:02:18.356Z,7.35
2023-04-11T05:04:50.876Z,7.32
2023-04-11T05:07:21.070Z,7.37
2023-04-11T05:09:55.255Z,7.40
2023-04-11T05:12:30.459Z,7.35
2023-04-11T05:15:19.032Z,7.41
2023-04-11T05:17:49.795Z,7.40
2023-04-11T05:20:21.949Z,7.41
2023-04-11T05:22:55.821Z,7.36
2023-04-11T05:25:26.185Z,7.36
2023-04-11T05:27:57.968Z,7.39
2023-04-11T05:30:41.609Z,7.49
2023-04-11T05:33:12.969Z,7.50
2023-04-11T05:35:44.390Z,7.56
2023-04-11T05:38:13.913Z,7.50
2023-04-11T05:40:43.001Z,7.61
2023-04-11T05:43:15.627Z,7.51
2023-04-11T05:45:48.009Z,7.48
2023-04-11T05:48:20.246Z,7.37
2023-04-11T05:50:51.464Z,7.50
2023-04-11T05:53:23.471Z,7.56
2023-04-11T05:55:53.172Z,7.63
2023-04-11T05:58:35.147Z,7.73
2023-04-11T06:01:14.708Z,7.71
2023-04-11T06:03:44.563Z,7.82
2023-04-11T06:06:15.858Z,7.64
2023-04-11T06:08:44.935Z,7.77
2023-04-11T06:11:16.119Z,7.91
2023-04-11T06:13:45.772Z,7.78
2023-04-11T06:16:26.327Z,7.87
2023-04-11T06:18:55.732Z,7.95
2023-04-11T06:21:24.728Z,7.83
2023-04-11T06:23:54.716Z,7.74
2023-04-11T06:26:26.069Z,7.92
2023-04-11T06:28:58.781Z,8.01
2023-04-11T06:31:34.148Z,8.19
2023-04-11T06:34:07.036Z,8.33
2023-04-11T06:36:37.416Z,8.24
2023-04-11T06:39:09.850Z,8.39
2023-04-11T06:41:50.197Z,8.49
2023-04-11T06:44:29.293Z,8.53
2023-04-11T06:47:01.574Z,8.55
2023-04-11T06:49:31.375Z,8.77
2023-04-11T06:52:03.543Z,8.62
2023-04-11T06:54:35.211Z,8.91
2023-04-11T06:57:06.303Z,8.76
2023-04-11T06:59:35.934Z,9.19
2023-04-11T07:02:11.036Z,9.22
2023-04-11T07:04:43.333Z,9.30
2023-04-11T07:07:11.461Z,9.34
2023-04-11T07:09:46.051Z,9.47
2023-04-11T07:12:23.503Z,9.39
2023-04-11T07:14:54.544Z,9.38
2023-04-11T07:17:24.348Z,9.38
2023-04-11T07:19:56.022Z,9.62
2023-04-11T07:22:31.335Z,9.71
2023-04-11T07:25:02.861Z,9.56
2023-04-11T07:27:32.193Z,9.41
2023-04-11T07:30:02.142Z,9.43
2023-04-11T07:32:37.106Z,9.62
2023-04-11T07:35:19.494Z,9.69
2023-04-11T07:37:47.874Z,10.02
2023-04-11T07:40:17.966Z,9.97
2023-04-11T07:42:49.821Z,9.92
2023-04-11T07:45:20.713Z,10.14
2023-04-11T07:47:58.066Z,10.37
2023-04-11T07:50:26.266Z,10.03
2023-04-11T07:52:57.126Z,9.95
2023-04-11T07:55:34.533Z,9.97
2023-04-11T07:58:04.891Z,9.98
2023-04-11T08:00:34.781Z,10.12
2023-04-11T08:03:08.120Z,10.28
2023-04-11T08:05:40.712Z,10.34
2023-04-11T08:08:12.483Z,10.45
2023-04-11T08:10:43.139Z,10.26
2023-04-11T08:13:12.392Z,10.44
2023-04-11T08:15:44.213Z,10.40
2023-04-11T08:18:17.142Z,10.49
2023-04-11T08:20:49.000Z,10.43
2023-04-11T08:23:20.669Z,10.41
2023-04-11T08:25:50.994Z,10.57
2023-04-11T08:28:29.780Z,10.65
2023-04-11T08:31:04.253Z,10.70
2023-04-11T08:33:40.213Z,10.88
2023-04-11T08:36:11.234Z,10.60
2023-04-11T08:38:49.517Z,10.75
2023-04-11T08:41:21.653Z,10.82
2023-04-11T08:43:57.656Z,10.95
2023-04-11T08:46:26.909Z,10.97
2023-04-11T08:49:00.342Z,11.05
2023-04-11T08:51:29.564Z,11.19
2023-04-11T08:53:59.741Z,11.35
2023-04-11T08:56:34.094Z,11.39
2023-04-11T08:59:05.691Z,11.30
2023-04-11T09:01:43.137Z,11.42
2023-04-11T09:04:41.681Z,11.53
2023-04-11T09:07:12.956Z,11.64
2023-04-11T09:09:46.759Z,11.78
2023-04-11T09:12:16.238Z,12.00
2023-04-11T09:14:45.167Z,12.14
2023-04-11T09:17:17.083Z,12.13
2023-04-11T09:19:49.151Z,12.37
2023-04-11T09:22:21.780Z,12.53
2023-04-11T09:25:03.790Z,12.61
2023-04-11T09:27:34.626Z,12.76
2023-04-11T09:30:05.907Z,12.78
2023-04-11T09:32:36.509Z,12.86
2023-04-11T09:35:19.649Z,12.79
2023-04-11T09:37:51.440Z,12.95
2023-04-11T09:40:24.380Z,12.86
2023-04-11T09:42:58.879Z,12.83
2023-04-11T09:45:28.431Z,12.87
2023-04-11T09:47:58.484Z,12.71
2023-04-11T09:50:32.178Z,12.80
2023-04-11T09:53:04.947Z,12.80
2023-04-11T09:55:37.218Z,12.51
2023-04-11T09:58:07.229Z,12.39
2023-04-11T10:00:39.204Z,12.36
2023-04-11T10:03:14.976Z,12.22
2023-04-11T10:05:51.589Z,12.19
2023-04-11T10:08:28.387Z,12.19
2023-04-11T10:11:05.241Z,12.11
2023-04-11T10:13:50.739Z,12.10
2023-04-11T10:16:24.720Z,11.98
2023-04-11T10:19:25.998Z,11.88
2023-04-11T10:22:00.185Z,11.96
2023-04-11T10:24:29.322Z,11.86
2023-04-11T10:27:03.764Z,12.02
2023-04-11T10:30:05.330Z,12.09
2023-04-11T10:32:43.707Z,12.20
2023-04-11T10:35:34.554Z,12.20
2023-04-11T10:38:54.656Z,12.21
2023-04-11T10:41:31.986Z,12.13
2023-04-11T10:44:21.169Z,12.05
2023-04-11T10:46:55.819Z,11.86
2023-04-11T10:49:39.912Z,11.82
2023-04-11T10:52:23.454Z,11.69
2023-04-11T10:55:19.978Z,11.70
2023-04-11T10:58:18.352Z,11.72
2023-04-11T11:01:42.740Z,11.61
2023-04-11T11:04:23.244Z,11.63
2023-04-11T11:07:04.889Z,11.70
2023-04-11T11:09:43.118Z,11.66
2023-04-11T11:12:34.530Z,11.75
2023-04-11T11:15:17.559Z,11.72
2023-04-11T11:17:48.166Z,11.75
2023-04-11T11:20:23.114Z,11.96
2023-04-11T11:23:17.291Z,11.84
2023-04-11T11:25:55.080Z,11.99
2023-04-11T11:28:50.494Z,12.00
2023-04-11T11:31:22.932Z,11.94
2023-04-11T11:34:04.773Z,11.97
2023-04-11T11:36:48.803Z,12.07
2023-04-11T11:39:23.553Z,12.07
2023-04-11T11:41:55.501Z,12.03
2023-04-11T11:44:32.597Z,12.08
2023-04-11T11:47:09.235Z,12.08
2023-04-11T11:49:49.248Z,12.28
2023-04-11T11:52:33.903Z,12.25
2023-04-11T11:58:05.139Z,12.06
2023-04-11T12:00:45.003Z,11.97
2023-04-11T12:03:16.836Z,12.17
2023-04-11T12:05:51.163Z,12.31
2023-04-11T12:08:22.306Z,12.30
2023-04-11T12:10:56.824Z,12.46
2023-04-11T12:13:30.718Z,12.49
2023-04-11T12:16:02.814Z,12.58
2023-04-11T12:18:33.283Z,12.65
2023-04-11T12:21:09.497Z,12.69
2023-04-11T12:23:38.196Z,12.92
2023-04-11T12:26:07.860Z,12.71
2023-04-11T12:28:38.123Z,12.65
2023-04-11T12:31:14.832Z,12.80
2023-04-11T12:33:43.352Z,12.84
2023-04-11T12:36:18.393Z,12.91
2023-04-11T12:38:48.277Z,12.77
2023-04-11T12:41:32.236Z,12.86
2023-04-11T12:44:03.123Z,12.85
2023-04-11T12:46:38.805Z,12.87
2023-04-11T12:49:13.526Z,12.72
2023-04-11T12:51:43.240Z,12.76
2023-04-11T12:54:11.548Z,12.83
2023-04-11T12:56:51.584Z,12.79
2023-04-11T12:59:25.738Z,12.78
2023-04-11T13:01:57.736Z,12.67
2023-04-11T13:04:26.707Z,12.66
2023-04-11T13:07:02.419Z,12.75
2023-04-11T13:09:33.488Z,12.66
2023-04-11T13:12:11.022Z,12.61
2023-04-11T13:14:40.700Z,12.48
2023-04-11T13:17:11.511Z,12.36
2023-04-11T13:19:43.004Z,12.30
2023-04-11T13:22:11.186Z,12.33
2023-04-11T13:24:39.284Z,12.28
2023-04-11T13:27:09.196Z,12.08
2023-04-11T13:29:43.256Z,12.20
2023-04-11T13:32:21.058Z,12.07
2023-04-11T13:34:50.669Z,12.20
2023-04-11T13:37:19.769Z,12.30
2023-04-11T13:39:48.524Z,12.11
2023-04-11T13:42:21.851Z,12.06
2023-04-11T13:44:54.153Z,12.15
2023-04-11T13:47:31.377Z,12.17
2023-04-11T13:50:00.737Z,11.96
2023-04-11T13:52:29.411Z,11.98
2023-04-11T13:55:01.412Z,12.33
2023-04-11T13:57:32.501Z,12.28
2023-04-11T14:00:07.195Z,12.25
2023-04-11T14:02:38.230Z,12.38
2023-04-11T14:05:10.330Z,12.40
2023-04-11T14:08:14.587Z,12.21
2023-04-11T14:10:52.867Z,12.36
2023-04-11T14:13:31.558Z,12.21
2023-04-11T14:16:08.717Z,12.12
2023-04-11T14:18:40.464Z,11.88
2023-04-11T14:21:10.001Z,12.24
2023-04-11T14:23:39.090Z,12.17
2023-04-11T14:26:09.946Z,12.19
2023-04-11T14:28:42.235Z,12.41
2023-04-11T14:31:13.027Z,12.55
2023-04-11T14:33:55.684Z,12.79
2023-04-11T14:36:24.488Z,12.89
2023-04-11T14:39:01.044Z,12.86
2023-04-11T14:41:32.836Z,12.61
2023-04-11T14:44:05.347Z,12.79
2023-04-11T14:46:40.570Z,12.97
2023-04-11T14:49:15.266Z,12.89
2023-04-11T14:51:52.638Z,13.42
2023-04-11T14:54:29.900Z,13.76
2023-04-11T14:57:03.859Z,13.78
2023-04-11T14:59:35.900Z,13.58
2023-04-11T15:02:07.133Z,13.63
2023-04-11T15:04:46.791Z,13.37
2023-04-11T15:07:17.906Z,13.10
2023-04-11T15:09:48.267Z,13.65
2023-04-11T15:12:17.277Z,13.45
2023-04-11T15:14:53.392Z,13.78
2023-04-11T15:17:23.293Z,13.59
2023-04-11T15:19:59.863Z,13.47
2023-04-11T15:22:32.865Z,13.59
2023-04-11T15:25:02.009Z,13.90
2023-04-11T15:27:40.783Z,13.86
2023-04-11T15:30:12.828Z,13.75
2023-04-11T15:32:52.861Z,13.39
2023-04-11T15:35:30.417Z,13.42
2023-04-11T15:38:02.529Z,13.42
2023-04-11T15:40:31.473Z,13.53
2023-04-11T15:43:10.290Z,13.56
2023-04-11T15:45:39.640Z,13.64
2023-04-11T15:48:16.069Z,13.84
2023-04-11T15:50:47.816Z,13.49
2023-04-11T15:53:22.665Z,13.19
2023-04-11T15:55:54.099Z,12.98
2023-04-11T15:58:25.542Z,13.15
2023-04-11T16:00:55.253Z,12.87
2023-04-11T16:03:31.697Z,12.71
2023-04-11T16:06:13.009Z,12.85
2023-04-11T16:08:51.942Z,12.56
2023-04-11T16:11:20.950Z,12.57
2023-04-11T16:13:57.574Z,13.56
2023-04-11T16:16:37.096Z,13.96
2023-04-11T16:19:14.277Z,13.43
2023-04-11T16:24:23.439Z,12.64
2023-04-11T16:26:56.950Z,12.87
2023-04-11T16:29:29.895Z,12.53
2023-04-11T16:32:01.349Z,12.30
2023-04-11T16:34:34.977Z,12.11
2023-04-11T16:37:07.834Z,11.86
2023-04-11T16:40:06.922Z,11.63
2023-04-11T16:42:35.617Z,11.66
2023-04-11T16:45:19.825Z,11.61
2023-04-11T16:47:50.688Z,11.68
2023-04-11T16:50:21.487Z,11.65
2023-04-11T16:52:55.038Z,11.53
2023-04-11T16:55:30.482Z,11.58
2023-04-11T16:58:03.726Z,11.51
2023-04-11T17:00:48.628Z,11.39
2023-04-11T17:03:22.586Z,11.33
2023-04-11T17:06:04.595Z,11.36
2023-04-11T17:08:45.154Z,11.50
2023-04-11T17:11:24.217Z,11.70
2023-04-11T17:13:56.125Z,11.47
2023-04-11T17:16:28.278Z,11.54
2023-04-11T17:19:00.242Z,11.63
2023-04-11T17:21:28.900Z,11.53
2023-04-11T17:24:15.994Z,11.59
2023-04-11T17:26:50.101Z,11.62
2023-04-11T17:29:27.670Z,11.82
2023-04-11T17:31:57.735Z,11.85
2023-04-11T17:34:26.905Z,11.76
2023-04-11T17:37:05.505Z,11.50
2023-04-11T17:39:49.520Z,11.26
2023-04-11T17:42:27.244Z,10.91
2023-04-11T17:45:16.193Z,10.48
2023-04-11T17:47:50.659Z,10.15
2023-04-11T17:50:21.271Z,10.10
2023-04-11T17:52:53.551Z,10.00
2023-04-11T17:55:28.327Z,9.84
2023-04-11T17:57:56.717Z,9.88
2023-04-11T18:00:48.448Z,10.00
2023-04-11T18:03:26.184Z,9.91
2023-04-11T18:06:01.193Z,9.91
2023-04-11T18:08:49.126Z,10.08
2023-04-11T18:11:23.999Z,9.77
2023-04-11T18:14:00.987Z,9.90
2023-04-11T18:16:33.386Z,9.97
2023-04-11T18:19:03.674Z,9.86
2023-04-11T18:21:35.568Z,9.74
2023-04-11T18:24:06.610Z,9.75
2023-04-11T18:26:41.913Z,9.71
2023-04-11T18:29:15.444Z,9.73
2023-04-11T18:32:00.385Z,9.54
2023-04-11T18:34:31.084Z,9.48
2023-04-11T18:37:06.783Z,9.60
2023-04-11T18:39:44.222Z,9.64
2023-04-11T18:42:34.679Z,9.48
2023-04-11T18:45:05.817Z,9.50
2023-04-11T18:47:37.620Z,9.23
2023-04-11T18:50:12.418Z,9.33
2023-04-11T18:52:45.259Z,9.44
2023-04-11T18:55:21.169Z,9.51
2023-04-11T18:57:58.251Z,9.46
2023-04-11T19:00:40.765Z,9.44
2023-04-11T19:06:01.014Z,9.53
2023-04-11T19:08:43.759Z,9.46
2023-04-11T19:11:25.835Z,9.48
2023-04-11T19:14:00.217Z,9.44
2023-04-11T19:16:34.797Z,9.59
2023-04-11T19:19:08.073Z,9.55
2023-04-11T19:21:41.248Z,9.54
2023-04-11T19:24:20.616Z,9.56
2023-04-11T19:27:08.081Z,9.62
2023-04-11T19:29:41.313Z,9.58
2023-04-11T19:32:24.557Z,9.49
2023-04-11T19:35:05.905Z,9.58
2023-04-11T19:37:42.599Z,9.74
2023-04-11T19:40:22.814Z,9.58
2023-04-11T19:43:00.188Z,9.71
2023-04-11T19:45:56.498Z,9.85
2023-04-11T19:48:36.108Z,9.82
2023-04-11T19:51:12.683Z,9.72
2023-04-11T19:53:46.575Z,9.90
2023-04-11T19:56:26.418Z,9.93
2023-04-11T19:58:58.266Z,9.69
2023-04-11T20:01:44.119Z,9.82
2023-04-11T20:04:28.725Z,10.03
2023-04-11T20:07:04.698Z,9.92
2023-04-11T20:09:37.035Z,10.00
2023-04-11T20:12:18.400Z,9.85
2023-04-11T20:14:49.686Z,9.98
2023-04-11T20:17:25.829Z,9.74
2023-04-11T20:20:03.463Z,10.00
2023-04-11T20:22:46.516Z,9.76
2023-04-11T20:25:24.140Z,9.72
2023-04-11T20:27:59.585Z,9.58
2023-04-11T20:30:37.133Z,9.33
2023-04-11T20:33:21.562Z,9.57
2023-04-11T20:36:06.682Z,9.60
2023-04-11T20:38:44.268Z,9.48
2023-04-11T20:41:12.571Z,9.48
2023-04-11T20:43:57.951Z,9.53
2023-04-11T20:46:30.051Z,9.51
2023-04-11T20:49:11.999Z,9.21
2023-04-11T20:51:52.266Z,9.45
2023-04-11T20:54:21.956Z,9.27
2023-04-11T20:56:52.781Z,9.46
2023-04-11T20:59:29.903Z,9.27
2023-04-11T21:02:01.765Z,9.25
2023-04-11T21:04:51.747Z,9.12
2023-04-11T21:07:28.513Z,9.12
2023-04-11T21:10:07.127Z,9.19
2023-04-11T21:12:37.494Z,9.18
2023-04-11T21:15:06.886Z,9.10
2023-04-11T21:17:41.166Z,9.08
2023-04-11T21:20:20.710Z,8.94
2023-04-11T21:22:52.943Z,8.97
2023-04-11T21:25:37.513Z,8.98
2023-04-11T21:28:09.135Z,9.02
2023-04-11T21:30:39.536Z,9.00
2023-04-11T21:33:12.134Z,8.84
2023-04-11T21:35:59.122Z,8.80
2023-04-11T21:38:28.060Z,8.64
2023-04-11T21:41:09.431Z,8.78
2023-04-11T21:43:37.902Z,8.77
2023-04-11T21:46:10.047Z,8.77
2023-04-11T21:48:43.249Z,8.56
2023-04-11T21:51:19.958Z,8.52
2023-04-11T21:53:53.012Z,8.68
2023-04-11T21:56:29.920Z,8.68
2023-04-11T21:58:59.332Z,8.79
2023-04-11T22:01:29.196Z,8.67
2023-04-11T22:04:00.598Z,8.71
2023-04-11T22:06:47.584Z,8.64
2023-04-11T22:09:20.989Z,8.77
2023-04-11T22:11:50.992Z,8.78
2023-04-11T22:14:27.992Z,8.90
2023-04-11T22:17:01.147Z,8.90
2023-04-11T22:19:34.816Z,8.92
2023-04-11T22:22:08.375Z,8.94
2023-04-11T22:24:47.069Z,8.81
2023-04-11T22:27:19.048Z,8.68
2023-04-11T22:29:52.640Z,8.77
2023-04-11T22:32:21.323Z,8.60
2023-04-11T22:34:59.696Z,8.57
2023-04-11T22:37:30.597Z,8.49
2023-04-11T22:40:01.071Z,8.48
2023-04-11T22:42:30.893Z,8.53
2023-04-11T22:44:58.951Z,8.48
2023-04-11T22:47:32.696Z,8.55
2023-04-11T22:50:03.853Z,8.47
2023-04-11T22:52:40.370Z,8.41
2023-04-11T22:55:15.612Z,8.57
2023-04-11T22:57:47.324Z,8.50
2023-04-11T23:00:24.635Z,8.43
2023-04-11T23:02:57.320Z,8.61
2023-04-11T23:05:30.727Z,8.59
2023-04-11T23:08:02.627Z,8.62
2023-04-11T23:10:30.829Z,8.53
2023-04-11T23:13:00.492Z,8.62
2023-04-11T23:15:32.689Z,8.71
2023-04-11T23:18:06.779Z,8.74
2023-04-11T23:20:40.621Z,8.79
2023-04-11T23:23:20.305Z,8.74
2023-04-11T23:25:50.852Z,8.74
2023-04-11T23:28:28.726Z,8.79
2023-04-11T23:30:58.833Z,8.67
2023-04-11T23:33:31.697Z,8.69
2023-04-11T23:36:04.971Z,8.73
2023-04-11T23:38:37.095Z,8.72
2023-04-11T23:41:07.231Z,8.85
2023-04-11T23:43:39.190Z,8.79
2023-04-11T23:46:16.114Z,8.69
2023-04-11T23:48:46.949Z,8.58
2023-04-11T23:51:18.380Z,8.58
2023-04-11T23:53:49.815Z,8.62
2023-04-11T23:56:21.121Z,8.55
2023-04-11T23:58:50.458Z,8.42
